createdAt,value
2023-03-10T00:01:31.804Z,99400.19
2023-03-10T00:04:01.081Z,99403.69
2023-03-10T00:06:34.399Z,99402.84
2023-03-10T00:09:01.878Z,99393.44
2023-03-10T00:11:28.753Z,99390.00
2023-03-10T00:13:55.630Z,99386.56
2023-03-10T00:16:27.478Z,99356.44
2023-03-10T00:18:55.674Z,99376.28
2023-03-10T00:21:26.330Z,99378.00
2023-03-10T00:23:54.029Z,99380.56
2023-03-10T00:26:22.139Z,99373.69
2023-03-10T00:28:49.724Z,99365.97
2023-03-10T00:31:23.643Z,99358.25
2023-03-10T00:33:52.183Z,99361.66
2023-03-10T00:36:22.830Z,99350.50
2023-03-10T00:38:51.104Z,99345.34
2023-03-10T00:41:22.691Z,99340.19
2023-03-10T00:43:50.047Z,99340.19
2023-03-10T00:46:17.509Z,99331.59
2023-03-10T00:48:44.606Z,99329.88
2023-03-10T00:51:12.202Z,99327.28
2023-03-10T00:53:40.719Z,99334.13
2023-03-10T00:56:12.880Z,99319.53
2023-03-10T00:58:40.389Z,99326.44
2023-03-10T01:01:34.509Z,99318.72
2023-03-10T01:04:10.181Z,99317.84
2023-03-10T01:06:37.151Z,99312.72
2023-03-10T01:09:04.997Z,99304.94
2023-03-10T01:11:32.720Z,99305.81
2023-03-10T01:14:03.266Z,99299.78
2023-03-10T01:16:30.597Z,99280.03
2023-03-10T01:18:58.814Z,99277.44
2023-03-10T01:21:34.110Z,99263.66
2023-03-10T01:24:02.458Z,99274.00
2023-03-10T01:26:30.639Z,99273.16
2023-03-10T01:28:57.980Z,99267.13
2023-03-10T01:31:25.007Z,99255.94
2023-03-10T01:33:51.975Z,99249.91
2023-03-10T01:36:25.760Z,99243.88
2023-03-10T01:38:54.602Z,99253.31
2023-03-10T01:41:22.415Z,99244.72
2023-03-10T01:43:52.414Z,99240.44
2023-03-10T01:46:31.270Z,99240.41
2023-03-10T01:49:15.500Z,99230.94
2023-03-10T01:51:47.921Z,99229.25
2023-03-10T01:54:23.080Z,99232.66
2023-03-10T01:56:52.375Z,99225.75
2023-03-10T01:59:21.054Z,99224.06
2023-03-10T02:01:50.534Z,99218.03
2023-03-10T02:04:30.212Z,99212.00
2023-03-10T02:06:57.438Z,99206.81
2023-03-10T02:09:25.600Z,99198.25
2023-03-10T02:11:53.085Z,99201.63
2023-03-10T02:14:20.145Z,99193.09
2023-03-10T02:16:47.333Z,99183.56
2023-03-10T02:19:35.846Z,99176.78
2023-03-10T02:22:07.441Z,99165.63
2023-03-10T02:25:09.513Z,99166.44
2023-03-10T02:27:39.377Z,99163.00
2023-03-10T02:30:10.007Z,99157.81
2023-03-10T02:32:46.217Z,99151.81
2023-03-10T02:35:13.429Z,99137.16
2023-03-10T02:37:50.797Z,99137.22
2023-03-10T02:40:43.832Z,99138.03
2023-03-10T02:43:23.990Z,99128.59
2023-03-10T02:46:01.213Z,99129.44
2023-03-10T02:48:36.894Z,99126.03
2023-03-10T02:51:14.047Z,99124.31
2023-03-10T02:53:41.400Z,99122.56
2023-03-10T02:56:08.351Z,99112.25
2023-03-10T02:58:37.185Z,99108.84
2023-03-10T03:01:07.464Z,99108.81
2023-03-10T03:03:39.222Z,99087.34
2023-03-10T03:06:07.457Z,99091.59
2023-03-10T03:08:34.729Z,99085.56
2023-03-10T03:11:03.878Z,99082.16
2023-03-10T03:13:31.485Z,99075.28
2023-03-10T03:16:00.194Z,99081.31
2023-03-10T03:18:27.172Z,99070.13
2023-03-10T03:20:54.484Z,99066.75
2023-03-10T03:23:21.461Z,99058.16
2023-03-10T03:25:49.467Z,99071.03
2023-03-10T03:28:19.069Z,99057.31
2023-03-10T03:30:49.163Z,99057.31
2023-03-10T03:33:16.126Z,99046.16
2023-03-10T03:35:45.120Z,99046.16
2023-03-10T03:38:13.476Z,99031.59
2023-03-10T03:40:41.977Z,99041.03
2023-03-10T03:43:12.647Z,99023.84
2023-03-10T03:45:39.869Z,99025.59
2023-03-10T03:48:06.827Z,99030.69
2023-03-10T03:50:36.060Z,99017.00
2023-03-10T03:53:09.446Z,99011.81
2023-03-10T03:55:36.373Z,99015.22
2023-03-10T03:58:03.419Z,99003.19
2023-03-10T04:00:30.435Z,99003.22
2023-03-10T04:03:03.833Z,98991.16
2023-03-10T04:05:32.849Z,98982.59
2023-03-10T04:08:00.553Z,98986.84
2023-03-10T04:10:29.348Z,98980.88
2023-03-10T04:12:57.110Z,98973.16
2023-03-10T04:15:25.042Z,98968.84
2023-03-10T04:17:52.165Z,98963.69
2023-03-10T04:20:19.242Z,98965.41
2023-03-10T04:22:49.499Z,98951.69
2023-03-10T04:25:17.834Z,98955.94
2023-03-10T04:27:45.671Z,98953.38
2023-03-10T04:30:14.818Z,98950.81
2023-03-10T04:32:47.867Z,98945.66
2023-03-10T04:35:16.310Z,98948.22
2023-03-10T04:37:44.858Z,98934.50
2023-03-10T04:40:14.237Z,98920.69
2023-03-10T04:42:42.409Z,98936.13
2023-03-10T04:45:10.606Z,98921.53
2023-03-10T04:47:40.440Z,98925.00
2023-03-10T04:50:08.256Z,98917.25
2023-03-10T04:52:35.583Z,98918.06
2023-03-10T04:55:02.874Z,98918.91
2023-03-10T04:57:30.411Z,98905.13
2023-03-10T04:59:57.460Z,98909.44
2023-03-10T05:02:25.092Z,98910.28
2023-03-10T05:04:52.849Z,98902.56
2023-03-10T05:07:21.368Z,98895.66
2023-03-10T05:09:49.928Z,98899.09
2023-03-10T05:12:16.976Z,98890.53
2023-03-10T05:14:44.113Z,98903.41
2023-03-10T05:17:11.968Z,98890.53
2023-03-10T05:19:39.498Z,98898.22
2023-03-10T05:22:08.001Z,98881.06
2023-03-10T05:24:37.186Z,98882.81
2023-03-10T05:27:04.619Z,98877.66
2023-03-10T05:29:32.254Z,98881.06
2023-03-10T05:32:07.391Z,98873.34
2023-03-10T05:34:38.037Z,98866.47
2023-03-10T05:37:05.155Z,98871.63
2023-03-10T05:39:32.187Z,98875.03
2023-03-10T05:42:03.138Z,98872.47
2023-03-10T05:44:33.167Z,98875.03
2023-03-10T05:47:02.137Z,98866.44
2023-03-10T05:49:30.878Z,98869.00
2023-03-10T05:51:58.968Z,98851.00
2023-03-10T05:54:26.398Z,98870.75
2023-03-10T05:56:53.485Z,98865.63
2023-03-10T05:59:23.533Z,98851.88
2023-03-10T06:01:52.069Z,98857.91
2023-03-10T06:04:19.289Z,98863.94
2023-03-10T06:06:46.190Z,98861.34
2023-03-10T06:09:13.099Z,98847.63
2023-03-10T06:11:40.041Z,98849.31
2023-03-10T06:14:06.931Z,98846.75
2023-03-10T06:16:33.844Z,98851.03
2023-03-10T06:19:00.757Z,98851.06
2023-03-10T06:21:29.420Z,98817.56
2023-03-10T06:23:56.520Z,98842.50
2023-03-10T06:26:24.283Z,98840.81
2023-03-10T06:28:51.327Z,98844.25
2023-03-10T06:31:23.346Z,98836.56
2023-03-10T06:33:50.901Z,98835.69
2023-03-10T06:36:18.953Z,98833.13
2023-03-10T06:38:46.352Z,98828.88
2023-03-10T06:41:13.630Z,98832.31
2023-03-10T06:43:40.780Z,98822.03
2023-03-10T06:46:10.175Z,98832.38
2023-03-10T06:48:39.026Z,98832.34
2023-03-10T06:51:13.260Z,98841.75
2023-03-10T06:53:40.489Z,98840.09
2023-03-10T06:56:12.232Z,98832.41
2023-03-10T06:58:39.763Z,98833.25
2023-03-10T07:01:08.007Z,98837.53
2023-03-10T07:03:36.236Z,98827.25
2023-03-10T07:06:03.108Z,98828.97
2023-03-10T07:08:30.367Z,98824.66
2023-03-10T07:10:57.668Z,98824.69
2023-03-10T07:13:24.914Z,98822.97
2023-03-10T07:15:52.041Z,98817.84
2023-03-10T07:18:19.249Z,98825.56
2023-03-10T07:20:48.167Z,98819.59
2023-03-10T07:23:15.340Z,98817.03
2023-03-10T07:25:42.345Z,98826.47
2023-03-10T07:28:09.240Z,98817.91
2023-03-10T07:30:36.644Z,98810.22
2023-03-10T07:33:04.297Z,98812.78
2023-03-10T07:35:31.232Z,98808.53
2023-03-10T07:37:58.112Z,98817.97
2023-03-10T07:40:25.196Z,98803.41
2023-03-10T07:42:54.696Z,98811.94
2023-03-10T07:45:24.507Z,98794.78
2023-03-10T07:47:53.027Z,98799.97
2023-03-10T07:50:21.258Z,98807.72
2023-03-10T07:52:48.443Z,98809.44
2023-03-10T07:55:15.309Z,98806.00
2023-03-10T07:57:42.187Z,98817.19
2023-03-10T08:00:10.390Z,98811.16
2023-03-10T08:02:40.950Z,98813.72
2023-03-10T08:05:10.104Z,98811.19
2023-03-10T08:07:38.018Z,98813.75
2023-03-10T08:10:06.217Z,98810.34
2023-03-10T08:12:34.830Z,98814.63
2023-03-10T08:15:01.924Z,98815.50
2023-03-10T08:17:30.941Z,98818.06
2023-03-10T08:19:58.708Z,98815.53
2023-03-10T08:22:26.509Z,98819.84
2023-03-10T08:24:53.872Z,98817.25
2023-03-10T08:27:21.645Z,98808.69
2023-03-10T08:29:48.541Z,98813.84
2023-03-10T08:32:15.631Z,98814.72
2023-03-10T08:34:43.141Z,98811.31
2023-03-10T08:37:10.938Z,98816.44
2023-03-10T08:39:38.020Z,98810.47
2023-03-10T08:42:05.023Z,98800.16
2023-03-10T08:44:31.934Z,98805.28
2023-03-10T08:46:59.032Z,98797.56
2023-03-10T08:49:26.117Z,98799.28
2023-03-10T08:51:53.026Z,98788.09
2023-03-10T08:54:22.177Z,98800.97
2023-03-10T08:56:49.849Z,98795.84
2023-03-10T08:59:16.833Z,98797.53
2023-03-10T09:01:43.801Z,98794.94
2023-03-10T09:04:10.999Z,98800.13
2023-03-10T09:06:38.655Z,98793.28
2023-03-10T09:09:08.347Z,98782.97
2023-03-10T09:11:39.147Z,98793.25
2023-03-10T09:14:07.767Z,98795.88
2023-03-10T09:16:34.753Z,98798.47
2023-03-10T09:19:02.392Z,98803.66
2023-03-10T09:21:33.615Z,98804.53
2023-03-10T09:24:01.562Z,98810.53
2023-03-10T09:26:28.497Z,98810.53
2023-03-10T09:28:57.059Z,98807.09
2023-03-10T09:31:33.080Z,98797.66
2023-03-10T09:34:00.304Z,98801.09
2023-03-10T09:36:27.297Z,98799.41
2023-03-10T09:38:54.280Z,98797.69
2023-03-10T09:41:56.777Z,98799.41
2023-03-10T09:44:51.277Z,98791.66
2023-03-10T09:47:38.587Z,98795.09
2023-03-10T09:50:33.726Z,98804.56
2023-03-10T09:53:37.898Z,98806.25
2023-03-10T09:56:15.946Z,98808.81
2023-03-10T09:59:08.069Z,98801.94
2023-03-10T10:01:35.367Z,98802.81
2023-03-10T10:04:36.798Z,98807.09
2023-03-10T10:07:15.587Z,98799.34
2023-03-10T10:10:04.461Z,98800.22
2023-03-10T10:12:32.783Z,98817.38
2023-03-10T10:15:14.696Z,98805.38
2023-03-10T10:18:33.519Z,98808.78
2023-03-10T10:21:14.357Z,98815.63
2023-03-10T10:23:47.675Z,98826.78
2023-03-10T10:26:18.819Z,98832.78
2023-03-10T10:28:54.375Z,98835.38
2023-03-10T10:31:25.850Z,98835.38
2023-03-10T10:34:22.744Z,98843.97
2023-03-10T10:36:56.956Z,98852.53
2023-03-10T10:39:40.727Z,98852.53
2023-03-10T10:42:33.148Z,98849.13
2023-03-10T10:45:04.371Z,98856.00
2023-03-10T10:47:35.741Z,98854.31
2023-03-10T10:50:18.009Z,98856.91
2023-03-10T10:52:48.853Z,98854.34
2023-03-10T10:55:34.724Z,98861.19
2023-03-10T10:58:06.614Z,98860.34
2023-03-10T11:00:37.414Z,98853.47
2023-03-10T11:03:26.907Z,98852.59
2023-03-10T11:05:56.339Z,98858.66
2023-03-10T11:08:37.398Z,98844.91
2023-03-10T11:11:36.444Z,98849.19
2023-03-10T11:15:01.856Z,98833.72
2023-03-10T11:17:33.394Z,98838.88
2023-03-10T11:20:27.741Z,98841.44
2023-03-10T11:23:20.293Z,98839.75
2023-03-10T11:26:22.504Z,98833.72
2023-03-10T11:28:54.124Z,98843.19
2023-03-10T11:31:41.813Z,98849.19
2023-03-10T11:34:30.329Z,98843.16
2023-03-10T11:37:31.202Z,98835.44
2023-03-10T11:40:28.406Z,98832.88
2023-03-10T11:43:05.998Z,98833.72
2023-03-10T11:45:54.626Z,98852.59
2023-03-10T11:48:49.904Z,98850.03
2023-03-10T11:51:29.137Z,98856.91
2023-03-10T11:53:59.085Z,98859.50
2023-03-10T11:56:27.589Z,98868.06
2023-03-10T11:59:15.126Z,98878.38
2023-03-10T12:02:19.392Z,98862.06
2023-03-10T12:04:58.223Z,98851.72
2023-03-10T12:07:38.166Z,98855.19
2023-03-10T12:10:16.819Z,98846.56
2023-03-10T12:12:46.920Z,98848.31
2023-03-10T12:15:25.494Z,98852.59
2023-03-10T12:17:54.187Z,98859.47
2023-03-10T12:20:20.991Z,98864.63
2023-03-10T12:22:53.187Z,98862.06
2023-03-10T12:25:29.149Z,98863.78
2023-03-10T12:28:24.333Z,98862.03
2023-03-10T12:31:02.000Z,98858.63
2023-03-10T12:33:33.645Z,98858.59
2023-03-10T12:36:32.608Z,98862.88
2023-03-10T12:39:28.081Z,98860.25
2023-03-10T12:42:00.914Z,98868.84
2023-03-10T12:44:48.707Z,98869.66
2023-03-10T12:47:36.086Z,98867.13
2023-03-10T12:50:22.695Z,98859.38
2023-03-10T12:52:59.529Z,98859.41
2023-03-10T12:55:28.138Z,98862.00
2023-03-10T12:58:15.611Z,98860.31
2023-03-10T13:00:55.856Z,98854.25
2023-03-10T13:03:46.911Z,98863.72
2023-03-10T13:06:13.734Z,98863.72
2023-03-10T13:08:59.855Z,98855.13
2023-03-10T13:11:48.696Z,98863.72
2023-03-10T13:14:19.918Z,98873.19
2023-03-10T13:17:00.584Z,98872.34
2023-03-10T13:19:31.530Z,98861.13
2023-03-10T13:21:58.994Z,98845.66
2023-03-10T13:24:29.807Z,98858.53
2023-03-10T13:27:19.477Z,98859.41
2023-03-10T13:30:22.626Z,98862.00
2023-03-10T13:32:56.715Z,98868.84
2023-03-10T13:35:36.182Z,98870.56
2023-03-10T13:38:11.874Z,98875.66
2023-03-10T13:40:43.352Z,98873.06
2023-03-10T13:43:37.565Z,98879.06
2023-03-10T13:46:15.804Z,98880.78
2023-03-10T13:48:43.408Z,98876.50
2023-03-10T13:51:22.517Z,98863.66
2023-03-10T13:53:53.236Z,98873.97
2023-03-10T13:56:29.039Z,98875.69
2023-03-10T13:59:02.419Z,98873.97
2023-03-10T14:01:35.137Z,98859.38
2023-03-10T14:04:08.799Z,98871.41
2023-03-10T14:06:37.245Z,98878.28
2023-03-10T14:09:24.757Z,98879.16
2023-03-10T14:11:52.208Z,98882.63
2023-03-10T14:14:34.240Z,98856.88
2023-03-10T14:17:06.955Z,98866.31
2023-03-10T14:19:48.443Z,98853.41
2023-03-10T14:22:33.093Z,98876.59
2023-03-10T14:25:01.824Z,98869.69
2023-03-10T14:27:28.800Z,98880.03
2023-03-10T14:30:01.415Z,98873.16
2023-03-10T14:32:29.055Z,98885.19
2023-03-10T14:34:56.046Z,98878.31
2023-03-10T14:37:23.878Z,98880.06
2023-03-10T14:39:50.767Z,98878.34
2023-03-10T14:42:25.208Z,98868.06
2023-03-10T14:44:53.300Z,98864.63
2023-03-10T14:47:20.521Z,98857.75
2023-03-10T14:49:47.509Z,98863.75
2023-03-10T14:52:17.394Z,98856.94
2023-03-10T14:54:44.446Z,98860.38
2023-03-10T14:57:13.883Z,98856.06
2023-03-10T14:59:41.030Z,98845.75
2023-03-10T15:02:25.389Z,98824.28
2023-03-10T15:04:52.433Z,98843.16
2023-03-10T15:07:19.459Z,98841.47
2023-03-10T15:09:46.472Z,98832.00
2023-03-10T15:12:17.795Z,98834.59
2023-03-10T15:14:52.496Z,98842.31
2023-03-10T15:17:20.238Z,98856.06
2023-03-10T15:19:47.140Z,98846.59
2023-03-10T15:22:14.026Z,98848.34
2023-03-10T15:24:41.007Z,98854.34
2023-03-10T15:27:11.310Z,98856.06
2023-03-10T15:29:38.231Z,98859.50
2023-03-10T15:32:05.499Z,98857.75
2023-03-10T15:34:32.546Z,98850.88
2023-03-10T15:37:01.035Z,98861.22
2023-03-10T15:39:31.828Z,98852.63
2023-03-10T15:41:59.715Z,98861.19
2023-03-10T15:44:26.616Z,98857.75
2023-03-10T15:46:54.905Z,98853.47
2023-03-10T15:49:22.004Z,98851.78
2023-03-10T15:51:48.962Z,98854.34
2023-03-10T15:54:15.871Z,98845.78
2023-03-10T15:56:42.850Z,98839.75
2023-03-10T15:59:09.966Z,98845.75
2023-03-10T16:01:37.064Z,98856.94
2023-03-10T16:04:05.857Z,98873.22
2023-03-10T16:06:34.320Z,98876.66
2023-03-10T16:09:01.442Z,98886.09
2023-03-10T16:11:28.391Z,98881.84
2023-03-10T16:13:55.319Z,98883.50
2023-03-10T16:16:23.650Z,98890.41
2023-03-10T16:18:51.220Z,98884.38
2023-03-10T16:21:19.080Z,98899.81
2023-03-10T16:23:46.466Z,98891.25
2023-03-10T16:26:17.245Z,98894.69
2023-03-10T16:28:52.528Z,98884.38
2023-03-10T16:31:23.335Z,98881.78
2023-03-10T16:33:51.488Z,98880.06
2023-03-10T16:36:25.330Z,98891.22
2023-03-10T16:38:53.748Z,98862.00
2023-03-10T16:41:21.626Z,98894.63
2023-03-10T16:43:48.602Z,98904.06
2023-03-10T16:46:21.513Z,98897.22
2023-03-10T16:48:48.905Z,98906.63
2023-03-10T16:51:35.357Z,98892.91
2023-03-10T16:54:05.375Z,98892.03
2023-03-10T16:56:35.744Z,98890.31
2023-03-10T16:59:02.653Z,98889.47
2023-03-10T17:01:29.610Z,98883.44
2023-03-10T17:03:56.729Z,98885.16
2023-03-10T17:06:28.924Z,98879.16
2023-03-10T17:08:56.812Z,98892.84
2023-03-10T17:11:30.451Z,98870.53
2023-03-10T17:14:01.584Z,98868.84
2023-03-10T17:16:30.861Z,98868.81
2023-03-10T17:19:01.185Z,98868.00
2023-03-10T17:21:33.314Z,98873.97
2023-03-10T17:24:00.247Z,98879.97
2023-03-10T17:26:27.158Z,98886.00
2023-03-10T17:28:54.064Z,98885.13
2023-03-10T17:31:30.941Z,98887.72
2023-03-10T17:34:04.585Z,98879.94
2023-03-10T17:36:31.862Z,98873.91
2023-03-10T17:39:01.928Z,98874.75
2023-03-10T17:41:30.925Z,98870.47
2023-03-10T17:43:57.814Z,98868.75
2023-03-10T17:46:28.389Z,98867.91
2023-03-10T17:48:56.300Z,98867.06
2023-03-10T17:51:26.661Z,98847.31
2023-03-10T17:53:54.419Z,98858.47
2023-03-10T17:56:22.127Z,98870.50
2023-03-10T17:58:50.055Z,98873.91
2023-03-10T18:01:21.601Z,98859.31
2023-03-10T18:03:48.814Z,98864.50
2023-03-10T18:06:19.689Z,98867.13
2023-03-10T18:08:46.989Z,98863.72
2023-03-10T18:11:14.480Z,98860.25
2023-03-10T18:13:41.964Z,98874.00
2023-03-10T18:16:23.327Z,98854.22
2023-03-10T18:18:50.279Z,98854.22
2023-03-10T18:21:18.717Z,98860.25
2023-03-10T18:23:46.530Z,98853.34
2023-03-10T18:26:17.473Z,98851.66
2023-03-10T18:28:44.646Z,98847.34
2023-03-10T18:31:21.596Z,98844.78
2023-03-10T18:33:48.979Z,98848.19
2023-03-10T18:36:17.972Z,98843.03
2023-03-10T18:38:47.105Z,98846.44
2023-03-10T18:41:14.631Z,98838.72
2023-03-10T18:43:41.549Z,98834.44
2023-03-10T18:46:08.510Z,98843.88
2023-03-10T18:48:35.486Z,98839.56
2023-03-10T18:51:02.966Z,98844.72
2023-03-10T18:53:29.864Z,98822.44
2023-03-10T18:55:58.915Z,98818.97
2023-03-10T18:58:26.882Z,98811.25
2023-03-10T19:00:53.824Z,98819.81
2023-03-10T19:03:20.724Z,98822.38
2023-03-10T19:05:53.702Z,98832.69
2023-03-10T19:08:22.210Z,98831.84
2023-03-10T19:10:58.089Z,98823.28
2023-03-10T19:13:28.164Z,98817.28
2023-03-10T19:15:56.107Z,98811.28
2023-03-10T19:18:24.068Z,98815.53
2023-03-10T19:20:51.290Z,98823.25
2023-03-10T19:23:18.273Z,98814.72
2023-03-10T19:25:45.170Z,98821.56
2023-03-10T19:28:12.104Z,98812.13
2023-03-10T19:30:42.793Z,98812.16
2023-03-10T19:33:10.855Z,98819.84
2023-03-10T19:35:38.230Z,98819.84
2023-03-10T19:38:05.528Z,98809.53
2023-03-10T19:40:32.766Z,98805.25
2023-03-10T19:42:59.813Z,98803.53
2023-03-10T19:45:26.831Z,98792.41
2023-03-10T19:47:57.826Z,98789.81
2023-03-10T19:50:25.490Z,98796.69
2023-03-10T19:52:52.606Z,98793.25
2023-03-10T19:55:23.976Z,98781.22
2023-03-10T19:57:53.952Z,98791.53
2023-03-10T20:00:30.983Z,98805.25
2023-03-10T20:02:58.519Z,98806.09
2023-03-10T20:05:26.773Z,98805.25
2023-03-10T20:07:53.907Z,98806.97
2023-03-10T20:10:21.101Z,98812.13
2023-03-10T20:12:51.088Z,98815.53
2023-03-10T20:15:18.364Z,98807.84
2023-03-10T20:17:45.648Z,98812.13
2023-03-10T20:20:15.172Z,98807.84
2023-03-10T20:22:45.517Z,98807.88
2023-03-10T20:25:17.241Z,98804.44
2023-03-10T20:27:45.251Z,98814.72
2023-03-10T20:30:18.774Z,98813.88
2023-03-10T20:32:45.976Z,98801.84
2023-03-10T20:35:13.910Z,98790.69
2023-03-10T20:37:41.993Z,98803.56
2023-03-10T20:40:13.562Z,98791.53
2023-03-10T20:42:41.238Z,98796.69
2023-03-10T20:45:10.305Z,98793.28
2023-03-10T20:47:37.788Z,98800.16
2023-03-10T20:50:07.590Z,98790.72
2023-03-10T20:52:36.590Z,98780.41
2023-03-10T20:55:06.528Z,98796.69
2023-03-10T20:57:34.685Z,98801.00
2023-03-10T21:00:01.918Z,98813.88
2023-03-10T21:02:29.014Z,98813.88
2023-03-10T21:04:56.007Z,98807.88
2023-03-10T21:07:22.896Z,98794.13
2023-03-10T21:09:49.817Z,98801.03
2023-03-10T21:12:18.627Z,98797.59
2023-03-10T21:14:45.979Z,98801.03
2023-03-10T21:17:13.058Z,98813.91
2023-03-10T21:19:40.020Z,98817.38
2023-03-10T21:22:06.920Z,98813.06
2023-03-10T21:24:34.119Z,98804.50
2023-03-10T21:27:01.219Z,98813.06
2023-03-10T21:29:28.126Z,98819.09
2023-03-10T21:31:55.033Z,98824.25
2023-03-10T21:34:21.939Z,98824.22
2023-03-10T21:36:48.798Z,98817.38
2023-03-10T21:39:16.100Z,98817.38
2023-03-10T21:41:42.999Z,98822.53
2023-03-10T21:44:11.047Z,98821.66
2023-03-10T21:46:37.977Z,98821.63
2023-03-10T21:49:05.034Z,98820.75
2023-03-10T21:51:34.621Z,98814.72
2023-03-10T21:54:03.146Z,98811.31
2023-03-10T21:56:30.113Z,98804.47
2023-03-10T21:58:57.552Z,98809.59
2023-03-10T22:01:24.766Z,98811.31
2023-03-10T22:03:51.657Z,98808.72
2023-03-10T22:06:18.560Z,98805.28
2023-03-10T22:08:45.457Z,98802.69
2023-03-10T22:11:13.030Z,98809.56
2023-03-10T22:13:40.367Z,98804.44
2023-03-10T22:16:10.600Z,98800.13
2023-03-10T22:18:37.991Z,98801.88
2023-03-10T22:21:05.328Z,98806.16
2023-03-10T22:23:32.190Z,98809.59
2023-03-10T22:25:59.090Z,98809.59
2023-03-10T22:28:26.004Z,98813.03
2023-03-10T22:30:52.910Z,98817.31
2023-03-10T22:33:19.994Z,98822.44
2023-03-10T22:35:51.853Z,98820.78
2023-03-10T22:38:20.502Z,98843.09
2023-03-10T22:40:48.056Z,98830.25
2023-03-10T22:43:15.181Z,98839.69
2023-03-10T22:45:42.085Z,98839.72
2023-03-10T22:48:08.959Z,98827.66
2023-03-10T22:50:43.651Z,98836.25
2023-03-10T22:53:19.150Z,98849.16
2023-03-10T22:55:47.862Z,98846.56
2023-03-10T22:58:16.212Z,98852.59
2023-03-10T23:00:43.782Z,98858.59
2023-03-10T23:03:11.690Z,98872.34
2023-03-10T23:05:38.733Z,98874.06
2023-03-10T23:08:06.973Z,98879.22
2023-03-10T23:10:35.639Z,98885.22
2023-03-10T23:13:06.319Z,98886.06
2023-03-10T23:15:36.721Z,98889.50
2023-03-10T23:18:05.047Z,98886.91
2023-03-10T23:20:36.608Z,98896.38
2023-03-10T23:23:05.409Z,98899.81
2023-03-10T23:25:35.096Z,98897.22
2023-03-10T23:28:02.901Z,98905.78
2023-03-10T23:30:30.203Z,98905.78
2023-03-10T23:32:57.549Z,98919.47
2023-03-10T23:35:31.201Z,98920.31
2023-03-10T23:38:00.186Z,98928.81
2023-03-10T23:40:30.000Z,98937.38
2023-03-10T23:42:59.327Z,98927.91
2023-03-10T23:45:28.958Z,98932.22
2023-03-10T23:47:57.870Z,98943.38
2023-03-10T23:50:37.493Z,98960.47
2023-03-10T23:53:06.296Z,98952.72
2023-03-10T23:55:37.217Z,98962.09
2023-03-10T23:58:05.113Z,98958.63
